Time;durP1;ratioP1;P1;durP2;ratioP2;P2;SDS_P1;SDS_P2;PMS_P1;PMS_P2;Temp;Humidity;BMP_temperature;BMP_pressure;BME280_temperature;BME280_humidity;BME280_pressure;Samples;Min_cycle;Max_cycle;Signal;HPM_P1;HPM_P2
2022/04/03 00:01:34;;;;;;;35.30;6.90;;;;;;;10.76;73.71;99395.41;10414945;28;20402;-72
2022/04/03 00:06:34;;;;;;;26.52;5.82;;;;;;;10.55;73.52;99340.47;10413291;28;20048;-72
2022/04/03 00:11:35;;;;;;;19.55;5.78;;;;;;;9.57;73.09;99154.53;10412915;28;20037;-72
2022/04/03 00:16:37;;;;;;;30.90;6.35;;;;;;;10.54;72.50;99317.59;10413272;28;20551;-72
2022/04/03 00:21:38;;;;;;;30.40;6.20;;;;;;;11.37;73.02;99474.56;10411920;28;20393;-72
2022/04/03 00:26:39;;;;;;;35.30;6.32;;;;;;;10.33;72.92;99342.34;10413641;28;20237;-72
2022/04/03 00:31:40;;;;;;;17.25;5.78;;;;;;;8.83;72.58;99106.28;10412524;28;20171;-72
2022/04/03 00:36:41;;;;;;;18.33;5.07;;;;;;;10.20;72.80;99358.97;10412922;28;20497;-72
2022/04/03 00:41:43;;;;;;;28.15;6.10;;;;;;;9.20;72.64;99195.34;10413685;28;20045;-72
2022/04/03 00:46:45;;;;;;;21.52;5.90;;;;;;;10.83;73.42;99453.91;10412897;28;20072;-72
2022/04/03 00:51:46;;;;;;;26.52;5.82;;;;;;;10.18;73.04;99390.16;10410930;28;20061;-72
2022/04/03 00:56:47;;;;;;;29.92;5.53;;;;;;;10.05;72.90;99369.63;10411662;28;20045;-73
2022/04/03 01:01:48;;;;;;;37.97;11.40;;;;;;;9.11;73.59;99229.06;10412907;28;20045;-72
2022/04/03 01:06:50;;;;;;;33.40;8.70;;;;;;;9.59;73.69;99356.66;10412051;28;20030;-72
2022/04/03 01:11:50;;;;;;;27.40;8.23;;;;;;;10.04;74.03;99402.47;10412537;28;20048;-72
2022/04/03 01:16:51;;;;;;;24.17;6.25;;;;;;;10.02;74.58;99431.03;10411230;28;20064;-73
2022/04/03 01:21:52;;;;;;;28.17;7.07;;;;;;;10.91;74.79;99576.00;10411909;28;20040;-72
2022/04/03 01:26:53;;;;;;;24.83;6.68;;;;;;;9.36;74.59;99345.34;10412358;28;20511;-72
2022/04/03 01:31:54;;;;;;;29.25;6.75;;;;;;;9.59;74.93;99412.34;10412125;28;20037;-72
2022/04/03 01:36:55;;;;;;;25.23;6.28;;;;;;;10.76;74.71;99564.59;10409427;28;20412;-72
2022/04/03 01:41:56;;;;;;;22.10;5.53;;;;;;;7.83;74.53;99146.44;10426981;28;20073;-72
2022/04/03 01:46:57;;;;;;;22.70;6.45;;;;;;;8.83;74.55;99321.63;10410882;28;20515;-72
2022/04/03 01:51:58;;;;;;;31.75;6.05;;;;;;;8.98;74.98;99339.34;10409867;28;20049;-72
2022/04/03 01:56:58;;;;;;;20.13;6.05;;;;;;;9.16;75.10;99402.56;10413529;28;20060;-72
2022/04/03 02:01:59;;;;;;;17.40;5.22;;;;;;;9.52;75.84;99410.63;10419250;28;20048;-72
2022/04/03 02:07:03;;;;;;;29.73;6.78;;;;;;;9.61;75.57;99441.31;10418574;28;20056;-72
2022/04/03 02:12:05;;;;;;;22.10;5.93;;;;;;;7.82;75.24;99147.44;10418655;28;20044;-72
2022/04/03 02:17:07;;;;;;;20.45;5.85;;;;;;;8.96;75.91;99373.13;10416794;28;20049;-72
2022/04/03 02:22:08;;;;;;;26.00;5.72;;;;;;;9.51;75.94;99419.56;10418413;28;20042;-72
2022/04/03 02:27:08;;;;;;;42.80;11.27;;;;;;;8.58;76.19;99281.31;10418586;28;20038;-72
2022/04/03 02:32:09;;;;;;;39.40;11.10;;;;;;;8.62;76.50;99279.97;10416689;28;20132;-72
2022/04/03 02:37:10;;;;;;;35.33;7.68;;;;;;;7.33;76.24;99119.63;10416646;28;20088;-72
2022/04/03 02:42:11;;;;;;;33.15;6.60;;;;;;;9.30;76.17;99442.34;10416475;28;20037;-72
2022/04/03 02:47:12;;;;;;;36.08;6.32;;;;;;;9.26;76.38;99443.69;10418364;28;20029;-72
2022/04/03 02:52:14;;;;;;;29.52;5.47;;;;;;;8.55;76.07;99312.63;10415328;28;20050;-72
2022/04/03 02:57:16;;;;;;;29.75;6.80;;;;;;;8.51;75.57;99291.00;10415756;28;20041;-72
2022/04/03 03:02:17;;;;;;;24.50;6.30;;;;;;;9.19;75.60;99381.00;10416326;28;20116;-72
2022/04/03 03:07:18;;;;;;;27.20;5.85;;;;;;;8.64;75.20;99296.47;10409812;28;20131;-72
2022/04/03 03:12:19;;;;;;;27.23;5.68;;;;;;;9.47;74.61;99374.03;10388949;28;20050;-72
2022/04/03 03:17:19;;;;;;;19.88;4.82;;;;;;;8.66;73.96;99220.34;10383433;28;20120;-72
2022/04/03 03:22:21;;;;;;;25.00;6.90;;;;;;;10.48;73.60;99462.59;10374645;28;20413;-72
2022/04/03 03:27:21;;;;;;;23.60;7.03;;;;;;;9.24;72.88;99236.34;10374610;28;20437;-72
2022/04/03 03:32:24;;;;;;;30.45;6.95;;;;;;;10.73;72.53;99390.47;10399067;28;20037;-72
2022/04/03 03:37:26;;;;;;;28.10;7.53;;;;;;;10.76;72.47;99384.78;10412979;28;20041;-73
2022/04/03 03:42:27;;;;;;;29.83;8.32;;;;;;;10.84;71.50;99397.94;10413112;28;20045;-72
2022/04/03 03:47:27;;;;;;;31.05;7.18;;;;;;;11.35;71.04;99397.66;10410814;28;20033;-74
2022/04/03 03:52:28;;;;;;;28.92;6.70;;;;;;;11.77;69.63;99365.72;10411596;28;20471;-73
2022/04/03 03:57:29;;;;;;;24.65;7.13;;;;;;;12.61;68.70;99431.88;10411981;28;20382;-72
2022/04/03 04:02:30;;;;;;;26.05;6.68;;;;;;;13.23;66.85;99411.97;10412241;28;20052;-71
2022/04/03 04:07:45;;;;;;;19.60;7.32;;;;;;;13.86;64.88;99402.56;10395989;28;20042;-72
2022/04/03 04:12:47;;;;;;;39.70;11.30;;;;;;;13.62;62.85;99266.16;10414079;28;20072;-72
2022/04/03 04:17:48;;;;;;;58.00;24.08;;;;;;;15.37;61.58;99423.06;10413535;28;20415;-74
2022/04/03 04:22:52;;;;;;;30.75;9.07;;;;;;;16.74;59.92;99519.09;10403373;28;20519;-72
2022/04/03 04:27:52;;;;;;;34.00;7.33;;;;;;;17.09;58.58;99475.47;10400423;28;20048;-72
2022/04/03 04:32:53;;;;;;;24.55;8.05;;;;;;;16.43;57.81;99357.44;10400243;28;20038;-72
2022/04/03 04:37:54;;;;;;;31.92;7.72;;;;;;;17.30;56.75;99488.31;10395639;28;20037;-72
2022/04/03 04:42:57;;;;;;;26.13;7.18;;;;;;;17.44;56.23;99491.59;10395478;28;20053;-73
2022/04/03 04:48:01;;;;;;;26.63;7.20;;;;;;;16.84;55.21;99368.34;10399282;28;20033;-73
2022/04/03 04:53:02;;;;;;;31.30;7.65;;;;;;;17.43;53.51;99432.75;10399281;28;20045;-73
2022/04/03 04:58:03;;;;;;;24.33;6.07;;;;;;;17.24;52.70;99410.59;10414081;28;20064;-73
2022/04/03 05:03:05;;;;;;;24.85;7.72;;;;;;;16.85;51.74;99319.03;10396848;28;20056;-73
2022/04/03 05:08:07;;;;;;;28.27;8.13;;;;;;;17.38;50.96;99357.47;10407706;28;20050;-73
2022/04/03 05:13:11;;;;;;;32.67;9.90;;;;;;;17.74;50.53;99394.78;10412751;28;20504;-72
2022/04/03 05:18:12;;;;;;;32.60;11.77;;;;;;;16.93;50.79;99253.47;10396902;28;20057;-74
2022/04/03 05:23:13;;;;;;;37.15;9.88;;;;;;;18.51;50.23;99468.81;10397259;28;20108;-74
2022/04/03 05:28:14;;;;;;;27.40;8.38;;;;;;;17.99;50.15;99388.28;10398857;28;20045;-73
2022/04/03 05:33:15;;;;;;;29.52;7.55;;;;;;;18.98;49.94;99506.25;10416311;28;20064;-74
2022/04/03 05:38:16;;;;;;;28.55;7.35;;;;;;;18.68;48.54;99398.91;10420086;28;20037;-75
2022/04/03 05:43:17;;;;;;;22.38;6.70;;;;;;;17.46;47.83;99153.88;10418414;28;20049;-75
2022/04/03 05:48:18;;;;;;;30.35;6.53;;;;;;;19.27;47.35;99404.69;10417898;28;20064;-75
2022/04/03 05:53:19;;;;;;;21.38;6.72;;;;;;;19.09;46.58;99337.69;10419411;28;20509;-76
2022/04/03 05:58:20;;;;;;;26.50;6.18;;;;;;;19.30;46.36;99363.00;10429946;28;20057;-76
2022/04/03 06:03:21;;;;;;;17.70;5.70;;;;;;;20.32;46.47;99463.16;10413170;28;20037;-74
2022/04/03 06:08:21;;;;;;;22.60;6.32;;;;;;;20.30;46.28;99414.84;10427963;28;20552;-74
2022/04/03 06:13:24;;;;;;;29.95;6.88;;;;;;;20.76;45.54;99428.81;10428032;28;20053;-75
2022/04/03 06:18:25;;;;;;;24.92;6.10;;;;;;;20.34;45.32;99285.69;10394304;28;20091;-72
2022/04/03 06:23:26;;;;;;;48.17;6.88;;;;;;;20.75;45.54;99308.41;10418497;28;20122;-73
2022/04/03 06:28:27;;;;;;;24.65;6.85;;;;;;;20.73;45.00;99299.75;10418038;28;20041;-73
2022/04/03 06:33:28;;;;;;;27.90;6.78;;;;;;;20.84;45.09;99311.44;10399239;28;20095;-73
2022/04/03 06:38:29;;;;;;;21.77;6.80;;;;;;;21.13;45.03;99357.78;10375125;28;20045;-73
2022/04/03 06:43:31;;;;;;;28.15;6.40;;;;;;;20.68;44.46;99267.34;10375284;28;20052;-73
2022/04/03 06:48:32;;;;;;;28.00;6.68;;;;;;;20.96;43.94;99283.16;10375796;28;20081;-73
2022/04/03 06:53:32;;;;;;;22.63;6.40;;;;;;;21.55;42.91;99319.09;10376389;28;20077;-74
2022/04/03 06:58:33;;;;;;;35.40;7.05;;;;;;;21.15;42.94;99236.81;10376887;28;20041;-73
2022/04/03 07:03:35;;;;;;;22.52;6.40;;;;;;;22.15;42.43;99309.47;10376077;28;20046;-73
2022/04/03 07:08:35;;;;;;;23.63;5.80;;;;;;;22.37;42.14;99301.13;10375739;28;20040;-74
2022/04/03 07:13:36;;;;;;;21.92;6.32;;;;;;;22.99;41.07;99404.81;10374966;28;20038;-72
2022/04/03 07:18:37;;;;;;;23.90;6.65;;;;;;;22.59;40.12;99284.63;10375018;28;20077;-73
2022/04/03 07:23:38;;;;;;;26.33;5.78;;;;;;;22.83;39.90;99259.66;10375256;28;20046;-72
2022/04/03 07:28:40;;;;;;;25.45;6.82;;;;;;;22.62;39.58;99188.53;10374956;28;20038;-72
2022/04/03 07:33:41;;;;;;;33.33;6.88;;;;;;;23.26;39.71;99249.25;10374241;28;20045;-73
2022/04/03 07:38:42;;;;;;;25.20;6.30;;;;;;;24.13;39.26;99347.19;10374891;28;20034;-72
2022/04/03 07:43:43;;;;;;;25.08;5.80;;;;;;;24.06;37.15;99263.41;10373259;28;20104;-72
2022/04/03 07:48:44;;;;;;;27.58;7.45;;;;;;;23.04;36.29;99066.25;10372729;28;20103;-72
2022/04/03 07:53:45;;;;;;;22.77;7.20;;;;;;;23.27;36.08;99043.03;10372975;28;20061;-73
2022/04/03 07:58:46;;;;;;;15.05;5.28;;;;;;;23.51;36.12;99053.94;10372346;28;20070;-72
2022/04/03 08:03:47;;;;;;;20.35;5.65;;;;;;;25.42;35.56;99312.31;10374318;28;20042;-72
2022/04/03 08:08:47;;;;;;;17.95;5.70;;;;;;;24.01;34.89;99084.41;10373398;28;20489;-72
2022/04/03 08:13:48;;;;;;;20.40;6.57;;;;;;;24.82;34.70;99182.31;10372818;28;20041;-72
2022/04/03 08:18:49;;;;;;;19.63;5.35;;;;;;;24.20;34.77;99023.97;10374013;28;20180;-73
2022/04/03 08:23:50;;;;;;;20.63;5.53;;;;;;;25.93;33.83;99208.25;10373022;28;20136;-72
2022/04/03 08:28:51;;;;;;;18.08;4.85;;;;;;;25.39;31.44;99060.09;10371057;28;20088;-72
2022/04/03 08:33:52;;;;;;;16.25;4.38;;;;;;;26.27;29.95;99158.97;10371394;28;20289;-72
2022/04/03 08:38:54;;;;;;;13.77;4.35;;;;;;;25.09;28.73;98991.50;10371033;28;20038;-73
2022/04/03 08:43:55;;;;;;;23.00;5.10;;;;;;;26.11;29.07;99117.59;10373015;28;20038;-72
2022/04/03 08:48:57;;;;;;;19.67;5.05;;;;;;;26.92;28.78;99190.66;10372417;28;20112;-73
2022/04/03 08:53:58;;;;;;;16.17;5.10;;;;;;;25.71;27.73;98955.91;10370635;28;20046;-72
2022/04/03 08:58:59;;;;;;;14.52;4.82;;;;;;;26.66;28.18;99089.59;10371755;28;20127;-72
2022/04/03 09:04:00;;;;;;;15.55;4.43;;;;;;;25.98;27.50;98971.47;10372009;28;20144;-72
2022/04/03 09:09:02;;;;;;;17.20;4.70;;;;;;;24.96;27.09;98840.16;10379728;28;20042;-72
2022/04/03 09:14:12;;;;;;;22.50;4.82;;;;;;;27.21;25.55;99141.28;10421137;28;20073;-72
2022/04/03 09:19:12;;;;;;;19.15;4.75;;;;;;;25.98;27.01;98967.94;10420998;28;20140;-72
2022/04/03 09:24:13;;;;;;;25.50;4.88;;;;;;;26.20;26.35;98997.94;10420904;28;20120;-72
2022/04/03 09:29:16;;;;;;;17.98;4.53;;;;;;;26.76;25.79;99064.06;10420674;28;20405;-73
2022/04/03 09:34:19;;;;;;;20.10;4.75;;;;;;;27.15;24.77;99089.91;10420412;28;20124;-72
2022/04/03 09:39:24;;;;;;;18.20;4.47;;;;;;;27.39;24.94;99081.44;10419084;28;20053;-72
2022/04/03 09:44:41;;;;;;;13.32;3.72;;;;;;;26.55;24.94;98922.06;10419573;28;20041;-73
2022/04/03 09:49:51;;;;;;;20.60;5.50;;;;;;;26.64;25.30;98929.19;10418243;28;20207;-73
2022/04/03 09:54:52;;;;;;;20.58;5.60;;;;;;;26.81;24.91;98906.72;10419767;28;20045;-73
2022/04/03 09:59:54;;;;;;;17.08;4.93;;;;;;;26.15;24.65;98780.34;10418852;28;20416;-73
2022/04/03 10:04:55;;;;;;;22.85;5.43;;;;;;;27.80;24.15;99062.13;10418839;28;20042;-73
2022/04/03 10:09:57;;;;;;;20.58;4.80;;;;;;;26.43;25.10;98906.25;10417858;28;20049;-72
2022/04/03 10:14:59;;;;;;;18.92;4.88;;;;;;;26.25;24.93;98852.78;10418238;28;20533;-72
2022/04/03 10:20:00;;;;;;;21.98;6.30;;;;;;;26.17;25.06;98783.53;10417506;28;20096;-72
2022/04/03 10:25:04;;;;;;;25.52;5.70;;;;;;;26.55;24.18;98857.50;10419320;28;20041;-73
2022/04/03 10:30:07;;;;;;;22.63;5.05;;;;;;;26.52;23.71;98830.91;10418223;28;20068;-72
2022/04/03 10:35:10;;;;;;;20.00;5.63;;;;;;;26.72;23.44;98845.94;10433470;28;20095;-73
2022/04/03 10:40:17;;;;;;;;;;;;;;;28.17;22.46;99041.72;10417672;28;20609;-72
2022/04/03 10:45:20;;;;;;;20.10;4.80;;;;;;;27.97;22.85;99021.28;10433214;28;19917;-72
2022/04/03 10:50:21;;;;;;;20.58;5.40;;;;;;;27.88;22.98;98945.94;10415857;28;20053;-73
2022/04/03 10:55:27;;;;;;;24.20;5.18;;;;;;;28.19;22.52;98978.63;10410296;28;20045;-72
2022/04/03 11:00:29;;;;;;;21.63;5.85;;;;;;;28.19;22.99;99005.94;10409703;28;20034;-72
2022/04/03 11:05:29;;;;;;;18.38;5.18;;;;;;;28.21;21.42;99006.44;10376017;28;20608;-72
2022/04/03 11:10:48;;;;;;;26.42;10.43;;;;;;;28.38;20.19;98991.97;10374699;28;20191;-72
2022/04/03 11:15:52;;;;;;;29.42;4.93;;;;;;;28.07;21.97;98987.44;10397865;28;20075;-69
2022/04/03 11:21:12;;;;;;;26.98;5.30;;;;;;;28.08;21.12;98974.56;10404154;28;20077;-73
2022/04/03 11:26:14;;;;;;;17.70;4.68;;;;;;;28.02;19.91;98962.19;10399300;28;20058;-70
2022/04/03 11:31:15;;;;;;;25.98;7.90;;;;;;;27.72;19.71;98919.06;10401749;28;20049;-69
2022/04/03 11:36:19;;;;;;;21.05;4.40;;;;;;;27.64;20.57;98930.75;10402509;28;20044;-69
2022/04/03 11:41:28;;;;;;;16.75;4.40;;;;;;;27.80;19.58;98960.38;10399075;28;20071;-69
2022/04/03 11:46:30;;;;;;;21.27;4.72;;;;;;;27.45;18.98;98941.09;10398542;28;20041;-69
2022/04/03 11:51:31;;;;;;;17.87;4.37;;;;;;;27.37;19.13;98941.84;10402097;28;20187;-71
2022/04/03 11:56:35;;;;;;;23.60;4.00;;;;;;;27.41;18.03;98937.41;10378241;28;20057;-71
2022/04/03 12:01:38;;;;;;;17.60;4.35;;;;;;;26.62;17.73;98833.38;10407002;28;20049;-68
2022/04/03 12:06:44;;;;;;;14.98;4.00;;;;;;;26.62;17.96;98832.56;10391054;28;20033;-68
2022/04/03 12:11:50;;;;;;;23.73;4.93;;;;;;;27.03;17.98;98905.09;10386021;28;20418;-68
2022/04/03 12:16:58;;;;;;;22.27;4.15;;;;;;;27.08;16.05;98937.69;10410801;28;20651;-68
2022/04/03 12:22:04;;;;;;;16.17;4.13;;;;;;;26.03;16.75;98778.16;10414359;28;20044;-69
2022/04/03 12:27:14;;;;;;;24.30;4.40;;;;;;;27.10;15.44;98940.88;10413452;28;20456;-68
2022/04/03 12:32:39;;;;;;;16.75;4.60;;;;;;;26.26;16.74;98832.59;10404609;28;20466;-69
2022/04/03 12:37:42;;;;;;;21.10;4.35;;;;;;;26.81;18.21;98909.44;10409741;28;20033;-68
2022/04/03 12:42:44;;;;;;;;;;;;;;;27.25;16.45;98947.88;10409509;28;20118;-68
2022/04/03 12:47:52;;;;;;;23.13;5.20;;;;;;;26.88;17.94;98949.88;10428006;28;19916;-68
2022/04/03 12:52:55;;;;;;;14.80;4.05;;;;;;;26.54;18.43;98912.31;10412185;28;20520;-69
2022/04/03 13:03:30;;;;;;;16.90;5.45;;;;;;;26.03;19.56;98842.66;10412603;28;20052;-69
2022/04/03 13:08:46;;;;;;;22.52;6.80;;;;;;;26.54;18.82;98967.56;10413215;28;20057;-68
2022/04/03 13:13:47;;;;;;;25.55;4.55;;;;;;;26.27;19.98;98946.63;10413180;28;20045;-68
2022/04/03 13:18:48;;;;;;;19.65;5.32;;;;;;;25.99;20.74;98928.72;10412616;28;20044;-69
2022/04/03 13:23:48;;;;;;;22.02;6.35;;;;;;;25.81;20.60;98928.50;10412617;28;20037;-68
2022/04/03 13:28:49;;;;;;;24.50;6.55;;;;;;;25.33;21.07;98857.41;10412103;28;20040;-69
2022/04/03 13:33:52;;;;;;;25.50;9.25;;;;;;;25.69;20.92;98944.53;10412593;28;20045;-72
2022/04/03 13:38:55;;;;;;;;;;;;;;;25.85;21.47;98962.19;10401252;28;20112;-69
2022/04/03 13:43:55;;;;;;;33.22;6.55;;;;;;;25.61;21.92;98956.13;10400495;28;19975;-69
2022/04/03 13:48:56;;;;;;;26.92;4.70;;;;;;;25.42;22.44;98935.25;10371001;28;20050;-69
2022/04/03 13:53:57;;;;;;;18.35;4.88;;;;;;;25.34;23.14;98951.44;10382783;28;20521;-68
2022/04/03 13:59:00;;;;;;;14.93;4.18;;;;;;;24.72;23.27;98881.03;10420218;28;20042;-68
2022/04/03 14:04:02;;;;;;;15.83;5.90;;;;;;;25.06;23.44;98975.78;10394106;28;20038;-70
2022/04/03 14:09:04;;;;;;;34.60;9.07;;;;;;;25.11;23.41;98993.94;10377431;28;20034;-69
2022/04/03 14:14:05;;;;;;;38.65;13.30;;;;;;;25.01;23.83;98979.41;10399304;28;20072;-68
2022/04/03 14:19:06;;;;;;;28.08;7.30;;;;;;;24.95;24.19;98996.91;10418896;28;20072;-69
2022/04/03 14:24:08;;;;;;;27.17;5.43;;;;;;;24.87;24.43;99002.19;10411171;28;20038;-68
2022/04/03 14:29:09;;;;;;;26.45;5.28;;;;;;;24.11;25.06;98899.00;10392101;28;20053;-68
2022/04/03 14:34:09;;;;;;;25.15;5.88;;;;;;;23.97;25.72;98890.00;10394810;28;20057;-69
2022/04/03 14:39:10;;;;;;;22.50;6.03;;;;;;;24.48;26.66;99008.72;10391971;28;20076;-69
2022/04/03 14:44:11;;;;;;;18.05;5.63;;;;;;;23.47;27.41;98885.66;10405813;28;20041;-69
2022/04/03 14:49:12;;;;;;;23.08;6.95;;;;;;;23.87;28.37;98980.41;10410535;28;20053;-69
2022/04/03 14:54:13;;;;;;;30.20;9.15;;;;;;;22.30;29.26;98779.28;10417623;28;20048;-69
2022/04/03 14:59:14;;;;;;;32.65;9.68;;;;;;;23.43;30.29;99005.78;10409072;28;20531;-70
2022/04/03 15:04:14;;;;;;;25.80;5.43;;;;;;;22.85;30.82;98998.34;10407112;28;20504;-70
2022/04/03 15:09:31;;;;;;;33.38;5.57;;;;;;;22.18;31.21;98994.41;10389592;28;20120;-70
2022/04/03 15:14:32;;;;;;;23.23;5.20;;;;;;;21.08;32.19;98887.91;10402047;28;20084;-76
2022/04/03 15:19:34;;;;;;;25.75;5.47;;;;;;;20.73;32.68;98893.09;10402464;28;20111;-72
2022/04/03 15:24:37;;;;;;;28.95;5.75;;;;;;;21.17;32.80;98997.00;10410867;28;20421;-71
2022/04/03 15:29:52;;;;;;;53.15;19.38;;;;;;;21.10;33.23;98996.47;10416553;28;20048;-73
2022/04/03 15:34:54;;;;;;;37.25;13.00;;;;;;;20.90;33.24;99006.16;10397438;28;20042;-74
2022/04/03 15:39:54;;;;;;;45.42;17.48;;;;;;;20.76;33.54;99007.78;10406157;28;20041;-70
2022/04/03 15:44:55;;;;;;;40.22;9.85;;;;;;;20.42;33.60;98970.41;10406189;28;20489;-70
2022/04/03 15:50:00;;;;;;;36.80;11.85;;;;;;;20.50;33.81;99042.75;10414662;28;20085;-70
2022/04/03 15:55:04;;;;;;;23.92;8.38;;;;;;;20.34;34.10;99059.13;10414701;28;20516;-70
2022/04/03 16:00:05;;;;;;;;;;;;;;;20.49;33.88;99091.56;10412728;28;20044;-68
2022/04/03 16:05:08;;;;;;;23.60;5.20;;;;;;;20.23;34.01;99115.72;10406812;28;20291;-69
2022/04/03 16:10:25;;;;;;;29.35;5.25;;;;;;;20.11;34.75;99114.31;10413661;28;20504;-69
2022/04/03 16:15:27;;;;;;;24.80;4.75;;;;;;;19.99;35.03;99144.97;10413876;28;20072;-69
2022/04/03 16:20:28;;;;;;;29.75;5.30;;;;;;;19.37;36.16;99130.13;10414280;28;20119;-69
2022/04/03 16:25:29;;;;;;;16.50;4.25;;;;;;;19.20;37.74;99182.47;10414273;28;20049;-69
2022/04/03 16:30:30;;;;;;;18.23;4.25;;;;;;;19.02;38.12;99173.66;10414173;28;20060;-71
2022/04/03 16:35:33;;;;;;;20.33;4.38;;;;;;;19.08;38.18;99159.19;10411799;28;20424;-69
2022/04/03 16:40:34;;;;;;;20.85;4.45;;;;;;;19.14;37.82;99150.13;10413149;28;20160;-69
2022/04/03 16:45:35;;;;;;;19.02;3.55;;;;;;;18.99;37.59;99131.09;10413332;28;20124;-71
2022/04/03 16:50:37;;;;;;;13.40;3.33;;;;;;;19.13;38.04;99169.19;10412791;28;20196;-71
2022/04/03 16:55:38;;;;;;;21.75;3.97;;;;;;;18.80;38.36;99132.50;10405125;28;20050;-70
2022/04/03 17:00:40;;;;;;;23.77;3.85;;;;;;;19.08;38.28;99199.56;10402347;28;20037;-69
2022/04/03 17:05:41;;;;;;;18.00;5.25;;;;;;;18.96;38.83;99198.06;10412455;28;20053;-71
2022/04/03 17:10:44;;;;;;;16.00;4.03;;;;;;;17.48;39.35;98997.94;10412501;28;20037;-72
2022/04/03 17:15:45;;;;;;;18.60;3.43;;;;;;;18.41;38.92;99136.03;10412493;28;20048;-71
2022/04/03 17:20:46;;;;;;;14.05;3.40;;;;;;;16.37;39.28;98800.91;10413001;28;20613;-72
2022/04/03 17:25:49;;;;;;;12.02;3.10;;;;;;;17.79;39.79;99042.19;10410766;28;20068;-71
2022/04/03 17:30:50;;;;;;;21.00;4.18;;;;;;;18.53;40.24;99226.53;10419526;28;20612;-70
2022/04/03 17:35:51;;;;;;;25.55;3.92;;;;;;;18.48;40.72;99259.53;10419988;28;20041;-70
2022/04/03 17:40:52;;;;;;;19.25;3.95;;;;;;;18.00;40.93;99217.94;10397421;28;20440;-71
2022/04/03 17:45:54;;;;;;;20.88;4.70;;;;;;;17.70;40.90;99161.78;10377777;28;20132;-70
2022/04/03 17:51:00;;;;;;;11.15;3.45;;;;;;;17.04;41.27;99056.78;10378251;28;20058;-70
2022/04/03 17:56:03;;;;;;;18.40;4.45;;;;;;;17.67;42.05;99216.81;10376839;28;20045;-70
2022/04/03 18:01:04;;;;;;;21.95;4.10;;;;;;;17.67;42.06;99272.41;10376771;28;20065;-71
2022/04/03 18:06:05;;;;;;;17.17;3.47;;;;;;;17.08;42.73;99235.84;10387738;28;20037;-71
2022/04/03 18:11:08;;;;;;;19.33;4.38;;;;;;;17.82;43.40;99444.63;10419785;28;20049;-70
2022/04/03 18:16:11;;;;;;;20.77;3.50;;;;;;;17.77;44.16;99466.84;10412272;28;20050;-71
2022/04/03 18:21:12;;;;;;;17.58;3.42;;;;;;;17.68;44.45;99459.34;10388094;28;20049;-70
2022/04/03 18:26:13;;;;;;;21.67;3.50;;;;;;;17.30;45.06;99409.66;10416539;28;20044;-69
2022/04/03 18:31:14;;;;;;;19.10;3.67;;;;;;;17.61;45.93;99469.41;10418837;28;20132;-69
2022/04/03 18:36:16;;;;;;;24.73;4.03;;;;;;;17.36;47.49;99437.44;10417223;28;20038;-69
2022/04/03 18:41:17;;;;;;;20.08;4.10;;;;;;;17.23;49.36;99451.91;10416902;28;20046;-69
2022/04/03 18:46:17;;;;;;;17.92;3.60;;;;;;;16.61;49.64;99375.31;10423729;28;20493;-69
2022/04/03 18:51:18;;;;;;;26.10;3.85;;;;;;;16.83;50.36;99402.41;10405941;28;20053;-70
2022/04/03 18:56:21;;;;;;;21.65;4.80;;;;;;;17.04;50.41;99430.53;10432305;28;20452;-70
2022/04/03 19:01:23;;;;;;;21.80;5.25;;;;;;;16.82;51.14;99392.75;10414673;28;20068;-70
2022/04/03 19:06:24;;;;;;;24.05;4.50;;;;;;;16.07;52.92;99304.03;10414427;28;20061;-70
2022/04/03 19:11:27;;;;;;;24.20;5.07;;;;;;;15.09;54.25;99152.59;10413492;28;20056;-70
2022/04/03 19:16:28;;;;;;;25.90;4.47;;;;;;;15.61;54.74;99244.69;10394942;28;20076;-70
2022/04/03 19:21:29;;;;;;;16.75;3.95;;;;;;;15.58;56.11;99274.56;10391433;28;20073;-70
2022/04/03 19:26:30;;;;;;;22.25;4.32;;;;;;;14.87;56.48;99161.09;10394365;28;20049;-72
2022/04/03 19:31:31;;;;;;;30.15;7.57;;;;;;;14.78;56.60;99152.56;10412679;28;20049;-70
2022/04/03 19:36:32;;;;;;;22.38;3.90;;;;;;;13.83;57.36;99023.94;10415039;28;20496;-70
2022/04/03 19:41:33;;;;;;;17.50;4.18;;;;;;;13.89;57.75;99044.41;10413506;28;20043;-70
2022/04/03 19:46:34;;;;;;;22.08;4.15;;;;;;;14.67;57.62;99155.97;10428904;28;20035;-70
2022/04/03 19:51:35;;;;;;;14.27;3.75;;;;;;;15.26;58.87;99225.81;10405167;28;20053;-70
2022/04/03 19:56:36;;;;;;;18.38;3.58;;;;;;;14.19;59.19;99057.03;10412945;28;20040;-72
2022/04/03 20:01:37;;;;;;;15.43;3.85;;;;;;;14.92;59.40;99158.53;10428008;28;20508;-72
2022/04/03 20:06:42;;;;;;;20.25;3.20;;;;;;;14.22;58.68;99064.59;10411381;28;20045;-70
2022/04/03 20:11:43;;;;;;;20.30;3.67;;;;;;;13.66;57.90;98987.16;10403871;28;20056;-71
2022/04/03 20:16:45;;;;;;;15.35;3.60;;;;;;;15.15;57.06;99186.47;10404662;28;20060;-72
2022/04/03 20:21:46;;;;;;;15.80;3.60;;;;;;;14.71;56.82;99114.38;10389784;28;20493;-71
2022/04/03 20:26:47;;;;;;;14.65;3.38;;;;;;;14.09;56.63;99017.47;10372506;28;20097;-70
2022/04/03 20:31:48;;;;;;;15.35;3.42;;;;;;;15.03;57.14;99136.41;10371878;28;20046;-70
2022/04/03 20:36:49;;;;;;;18.88;3.88;;;;;;;14.44;58.51;99036.38;10371944;28;20073;-70
2022/04/03 20:41:50;;;;;;;21.35;4.63;;;;;;;13.92;59.01;98975.38;10372945;28;20069;-71
2022/04/03 20:46:52;;;;;;;14.25;3.58;;;;;;;13.43;58.97;98922.94;10372083;28;20033;-70
2022/04/03 20:51:53;;;;;;;12.27;3.85;;;;;;;15.03;58.76;99156.97;10372449;28;20059;-70
2022/04/03 20:56:54;;;;;;;20.42;3.90;;;;;;;12.88;58.92;98834.88;10404916;28;20043;-70
2022/04/03 21:01:55;;;;;;;18.10;3.33;;;;;;;14.52;60.19;99142.19;10412837;28;20037;-70
2022/04/03 21:06:56;;;;;;;15.23;3.80;;;;;;;13.07;60.99;98964.47;10414033;28;20132;-70
2022/04/03 21:12:00;;;;;;;15.55;4.20;;;;;;;13.60;61.17;99097.44;10412006;28;20495;-70
2022/04/03 21:17:02;;;;;;;;;;;;;;;14.70;61.17;99264.31;10412056;28;20132;-71
2022/04/03 21:22:04;;;;;;;14.23;3.63;;;;;;;13.97;60.52;99215.00;10412762;28;19967;-70
2022/04/03 21:27:05;;;;;;;16.17;3.72;;;;;;;14.67;60.44;99323.56;10412921;28;20037;-71
2022/04/03 21:32:07;;;;;;;20.17;3.72;;;;;;;14.69;60.95;99420.38;10411250;28;20412;-70
2022/04/03 21:37:08;;;;;;;22.15;3.47;;;;;;;14.42;59.40;99359.09;10413101;28;20041;-70
2022/04/03 21:42:09;;;;;;;22.25;4.00;;;;;;;14.79;58.66;99402.00;10412116;28;20038;-70
2022/04/03 21:47:10;;;;;;;21.25;4.15;;;;;;;13.72;59.77;99281.69;10410883;28;20041;-70
2022/04/03 21:52:11;;;;;;;30.75;6.03;;;;;;;14.86;62.18;99549.84;10411484;28;20065;-70
2022/04/03 21:57:12;;;;;;;51.97;7.70;;;;;;;13.36;62.57;99373.00;10409047;28;20504;-70
2022/04/03 22:02:12;;;;;;;39.28;6.68;;;;;;;12.14;64.22;99247.25;10410733;28;20088;-70
2022/04/03 22:07:13;;;;;;;32.65;7.25;;;;;;;13.65;66.71;99583.31;10411883;28;20045;-70
2022/04/03 22:12:14;;;;;;;29.95;7.15;;;;;;;13.41;69.41;99632.78;10411437;28;20048;-70
2022/04/03 22:17:15;;;;;;;23.98;5.43;;;;;;;13.30;70.47;99705.38;10412869;28;20191;-71
2022/04/03 22:22:15;;;;;;;39.95;5.00;;;;;;;12.84;71.38;99690.03;10417268;28;20043;-70
2022/04/03 22:27:17;;;;;;;24.33;4.13;;;;;;;12.85;70.88;99728.16;10418240;28;20033;-70
2022/04/03 22:32:18;;;;;;;20.13;4.30;;;;;;;12.45;71.00;99701.31;10418876;28;20053;-71
2022/04/03 22:37:18;;;;;;;18.15;3.97;;;;;;;12.39;70.39;99680.78;10418442;28;20052;-71
2022/04/03 22:42:19;;;;;;;16.50;4.25;;;;;;;12.31;70.07;99679.09;10417697;28;20230;-70
2022/04/03 22:47:20;;;;;;;26.98;8.30;;;;;;;11.69;70.02;99607.97;10417177;28;20041;-70
2022/04/03 22:52:21;;;;;;;21.10;4.78;;;;;;;11.43;69.91;99578.34;10417069;28;20439;-71
2022/04/03 22:57:22;;;;;;;19.40;4.70;;;;;;;12.32;70.00;99707.34;10417089;28;20057;-71
2022/04/03 23:02:23;;;;;;;13.63;3.22;;;;;;;11.53;69.74;99611.75;10417927;28;20053;-71
2022/04/03 23:07:24;;;;;;;20.67;5.40;;;;;;;11.97;69.94;99695.88;10417015;28;20578;-71
2022/04/03 23:12:25;;;;;;;27.05;7.82;;;;;;;12.09;70.12;99719.09;10416310;28;20045;-71
2022/04/03 23:17:25;;;;;;;14.45;4.20;;;;;;;11.99;69.69;99715.09;10416563;28;20037;-71